Time;durP1;ratioP1;P1;durP2;ratioP2;P2;SDS_P1;SDS_P2;PMS_P1;PMS_P2;Temp;Humidity;BMP_temperature;BMP_pressure;BME280_temperature;BME280_humidity;BME280_pressure;Samples;Min_cycle;Max_cycle;Signal;HPM_P1;HPM_P2
2021/11/13 13:34:55;;;;;;;24.25;9.68;;;;;;;20.64;66.41;101098.78;5016000;27;2052508;-68
2021/11/13 13:37:27;;;;;;;21.23;11.03;;;;;;;20.95;65.62;101105.94;5030922;28;20469;-71
2021/11/13 13:39:55;;;;;;;25.13;11.65;;;;;;;20.49;66.50;101101.91;5069435;28;20812;-69
2021/11/13 13:44:31;;;;;;;22.65;10.45;;;;;;;19.95;67.06;101103.34;5095250;27;20180;-71
2021/11/13 13:46:58;;;;;;;25.70;10.45;;;;;;;19.86;67.81;101094.63;5066831;28;20491;-71
2021/11/13 13:49:29;;;;;;;21.08;10.02;;;;;;;19.77;68.09;101082.34;5048272;28;20462;-71
2021/11/13 13:55:21;;;;;;;27.95;11.20;;;;;;;;;;5067801;27;20154;-71
2021/11/13 13:58:04;;;;;;;23.05;10.85;;;;;;;;;;5065771;28;20490;-73
2021/11/13 14:00:30;;;;;;;21.42;10.45;;;;;;;;;;5051473;28;20029;-71
2021/11/13 14:02:56;;;;;;;25.40;11.23;;;;;;;;;;5051263;28;20036;-71
2021/11/13 14:05:23;;;;;;;20.30;10.90;;;;;;;;;;5053528;28;20037;-70
2021/11/13 14:07:49;;;;;;;22.08;10.68;;;;;;;;;;5052654;28;20545;-71
2021/11/13 14:10:15;;;;;;;24.00;10.50;;;;;;;;;;5054060;28;20029;-76
2021/11/13 14:12:46;;;;;;;20.80;10.40;;;;;;;;;;5036754;28;20033;-72
2021/11/13 14:15:31;;;;;;;19.40;10.50;;;;;;;;;;5053868;28;20387;-71
2021/11/13 14:17:56;;;;;;;20.77;10.80;;;;;;;;;;5050605;28;20108;-77
2021/11/13 14:20:23;;;;;;;25.50;10.98;;;;;;;;;;5067385;28;20029;-71
2021/11/13 14:22:56;;;;;;;23.25;10.50;;;;;;;;;;5052079;28;20117;-73
2021/11/13 14:25:21;;;;;;;23.25;10.38;;;;;;;;;;5067256;28;20187;-74
2021/11/13 14:27:47;;;;;;;21.50;11.00;;;;;;;;;;5051512;28;20496;-71
2021/11/13 14:30:13;;;;;;;21.83;10.95;;;;;;;;;;5067318;28;20102;-74
2021/11/13 14:32:39;;;;;;;21.83;10.63;;;;;;;;;;5066532;28;20113;-71
2021/11/13 14:35:08;;;;;;;23.55;11.48;;;;;;;;;;5050875;28;20109;-72
2021/11/13 14:37:34;;;;;;;24.00;10.35;;;;;;;;;;5050596;28;20025;-72
2021/11/13 14:40:05;;;;;;;22.08;11.10;;;;;;;;;;5034204;28;20022;-73
2021/11/13 14:42:34;;;;;;;23.48;10.93;;;;;;;;;;5051355;28;20029;-80
2021/11/13 14:45:00;;;;;;;24.45;11.38;;;;;;;;;;5065899;28;20676;-73
2021/11/13 14:47:27;;;;;;;21.38;10.75;;;;;;;;;;5049354;28;20051;-74
2021/11/13 14:49:59;;;;;;;26.42;10.85;;;;;;;;;;5066681;28;20029;-71
2021/11/13 14:52:28;;;;;;;24.73;10.95;;;;;;;;;;5050279;28;20026;-73
2021/11/13 14:54:58;;;;;;;21.42;10.70;;;;;;;;;;5066478;28;20045;-72
2021/11/13 14:57:34;;;;;;;22.58;10.90;;;;;;;;;;5051183;28;20025;-72
2021/11/13 15:00:00;;;;;;;19.98;9.95;;;;;;;;;;5046873;28;20037;-71
2021/11/13 15:02:26;;;;;;;21.55;11.35;;;;;;;;;;5049832;28;20030;-73
2021/11/13 15:04:53;;;;;;;26.65;11.30;;;;;;;;;;5046350;28;20041;-71
2021/11/13 15:07:20;;;;;;;24.08;10.98;;;;;;;;;;5019911;28;20030;-72
2021/11/13 15:09:56;;;;;;;27.42;12.05;;;;;;;;;;5036413;28;20037;-72
2021/11/13 15:12:26;;;;;;;23.45;10.52;;;;;;;;;;5037267;28;20029;-71
2021/11/13 15:14:52;;;;;;;22.63;10.43;;;;;;;;;;5037644;28;20116;-71
2021/11/13 15:17:21;;;;;;;24.17;11.15;;;;;;;;;;5035951;28;20036;-71
2021/11/13 15:19:57;;;;;;;22.67;10.32;;;;;;;;;;5035902;28;20053;-71
2021/11/13 15:22:24;;;;;;;26.20;11.05;;;;;;;;;;5036951;28;20330;-70
2021/11/13 15:24:50;;;;;;;25.33;10.85;;;;;;;;;;5035795;28;20076;-70
2021/11/13 15:27:17;;;;;;;29.92;11.43;;;;;;;;;;5036539;28;20022;-70
2021/11/13 15:29:43;;;;;;;23.85;11.82;;;;;;;;;;5048427;28;20113;-71
2021/11/13 15:32:10;;;;;;;25.50;11.93;;;;;;;;;;5030346;28;20114;-71
2021/11/13 15:34:37;;;;;;;32.42;11.43;;;;;;;;;;5034174;28;20030;-70
2021/11/13 15:37:08;;;;;;;28.67;11.70;;;;;;;;;;5036505;28;20104;-70
2021/11/13 15:39:34;;;;;;;35.90;11.35;;;;;;;;;;5036920;28;20464;-70
2021/11/13 15:42:18;;;;;;;30.48;11.98;;;;;;;;;;5035326;28;20026;-70
2021/11/13 15:44:46;;;;;;;31.20;12.32;;;;;;;;;;5033059;28;20083;-70
2021/11/13 15:47:13;;;;;;;28.05;11.77;;;;;;;;;;5035834;28;20030;-72
2021/11/13 15:49:38;;;;;;;31.38;12.38;;;;;;;;;;5036684;28;20034;-74
2021/11/13 15:52:04;;;;;;;28.23;12.15;;;;;;;;;;5035388;28;20048;-73
2021/11/13 15:54:29;;;;;;;27.40;11.77;;;;;;;;;;5052397;28;20049;-74
2021/11/13 15:56:55;;;;;;;26.70;11.63;;;;;;;;;;5037456;28;20026;-74
2021/11/13 15:59:21;;;;;;;28.10;12.25;;;;;;;;;;5038810;28;20037;-73
2021/11/13 16:01:51;;;;;;;32.72;12.43;;;;;;;;;;5039722;28;20052;-72
2021/11/13 16:04:17;;;;;;;28.67;12.50;;;;;;;;;;5035205;28;20056;-71
2021/11/13 16:06:44;;;;;;;29.33;12.02;;;;;;;;;;5051183;28;20161;-70
2021/11/13 16:09:11;;;;;;;28.42;12.63;;;;;;;;;;5036512;28;20031;-71
2021/11/13 16:11:38;;;;;;;29.88;11.70;;;;;;;;;;5034907;28;20613;-71
2021/11/13 16:14:03;;;;;;;31.08;11.65;;;;;;;;;;5035458;28;20039;-70
2021/11/13 16:16:29;;;;;;;27.33;11.75;;;;;;;;;;5035457;28;20049;-75
2021/11/13 16:18:56;;;;;;;24.13;11.52;;;;;;;;;;5051516;28;20038;-70
2021/11/13 16:21:23;;;;;;;27.45;12.23;;;;;;;;;;5034748;28;20038;-70
2021/11/13 16:23:51;;;;;;;25.08;11.48;;;;;;;;;;5035412;28;20092;-71
2021/11/13 16:26:17;;;;;;;32.42;12.88;;;;;;;;;;5036839;28;20025;-72
2021/11/13 16:28:42;;;;;;;29.08;11.85;;;;;;;;;;5034606;28;20171;-75
2021/11/13 16:31:08;;;;;;;29.23;11.68;;;;;;;;;;5051663;28;20030;-71
2021/11/13 16:33:36;;;;;;;29.15;13.00;;;;;;;;;;5033892;28;20120;-71
2021/11/13 16:36:02;;;;;;;29.73;12.80;;;;;;;;;;5035058;28;20030;-74
2021/11/13 16:38:28;;;;;;;32.50;12.02;;;;;;;;;;5018242;28;20041;-74
2021/11/13 16:41:09;;;;;;;29.42;11.88;;;;;;;;;;5051441;28;20403;-75
2021/11/13 16:43:39;;;;;;;28.70;12.55;;;;;;;;;;5017895;28;20557;-75
2021/11/13 16:46:06;;;;;;;27.58;11.63;;;;;;;;;;5035375;28;20109;-73
2021/11/13 16:48:33;;;;;;;26.25;11.38;;;;;;;;;;5035558;28;20025;-75
2021/11/13 16:50:59;;;;;;;36.38;14.27;;;;;;;;;;5035411;28;20030;-73
2021/11/13 16:53:25;;;;;;;27.15;12.27;;;;;;;;;;5050294;28;20472;-74
2021/11/13 16:55:54;;;;;;;29.08;12.93;;;;;;;;;;5050731;28;20120;-78
2021/11/13 16:58:20;;;;;;;30.92;13.15;;;;;;;;;;5051040;28;20472;-71
2021/11/13 17:00:46;;;;;;;33.97;12.68;;;;;;;;;;5032684;28;20040;-70
2021/11/13 17:03:12;;;;;;;28.67;12.85;;;;;;;;;;5050693;28;20022;-71
2021/11/13 17:05:39;;;;;;;28.85;11.98;;;;;;;;;;5035568;28;20033;-70
2021/11/13 17:08:05;;;;;;;32.47;13.38;;;;;;;;;;5033715;28;20507;-69
2021/11/13 17:10:31;;;;;;;28.45;12.10;;;;;;;;;;5035453;28;20491;-67
2021/11/13 17:12:56;;;;;;;24.17;11.90;;;;;;;;;;5035185;28;20032;-69
2021/11/13 17:15:22;;;;;;;24.13;12.18;;;;;;;;;;5034857;28;20112;-71
2021/11/13 17:17:48;;;;;;;26.88;11.75;;;;;;;;;;5050392;28;20404;-73
2021/11/13 17:20:14;;;;;;;29.98;12.13;;;;;;;;;;5033407;28;20036;-71
2021/11/13 17:22:41;;;;;;;26.17;12.27;;;;;;;;;;5050285;28;20025;-69
2021/11/13 17:25:07;;;;;;;24.75;11.70;;;;;;;;;;5035070;28;20046;-75
2021/11/13 17:27:33;;;;;;;28.10;11.73;;;;;;;;;;5035149;28;20037;-73
2021/11/13 17:29:59;;;;;;;30.35;12.40;;;;;;;;;;5033430;28;20056;-74
2021/11/13 17:32:25;;;;;;;24.33;11.60;;;;;;;;;;5017593;28;20191;-74
2021/11/13 17:34:50;;;;;;;23.67;11.45;;;;;;;;;;5033814;28;20159;-74
2021/11/13 17:37:17;;;;;;;25.35;11.57;;;;;;;;;;5030332;28;20053;-73
2021/11/13 17:39:43;;;;;;;24.67;11.48;;;;;;;;;;5014235;28;20030;-72
2021/11/13 17:42:09;;;;;;;29.58;12.50;;;;;;;;;;5049144;28;20093;-72
2021/11/13 17:44:34;;;;;;;23.92;11.63;;;;;;;;;;5034460;28;20555;-75
2021/11/13 17:47:00;;;;;;;29.52;12.57;;;;;;;;;;5049415;28;20083;-70
2021/11/13 17:49:26;;;;;;;23.42;11.50;;;;;;;;;;5032437;28;20034;-71
2021/11/13 17:51:52;;;;;;;24.67;11.10;;;;;;;;;;5032633;28;20040;-72
2021/11/13 17:54:18;;;;;;;26.58;11.43;;;;;;;;;;5032948;28;20391;-72
2021/11/13 17:56:43;;;;;;;24.40;11.20;;;;;;;;;;5033103;28;20021;-73
2021/11/13 17:59:09;;;;;;;27.77;11.13;;;;;;;;;;5032836;28;20037;-71
2021/11/13 18:01:38;;;;;;;29.33;11.23;;;;;;;;;;5032854;28;20466;-75
2021/11/13 18:04:03;;;;;;;25.27;10.40;;;;;;;;;;5032044;28;20033;-72
2021/11/13 18:06:29;;;;;;;24.75;11.10;;;;;;;;;;5032416;28;20067;-77
2021/11/13 18:08:55;;;;;;;23.42;10.35;;;;;;;;;;5033328;28;20037;-78
2021/11/13 18:11:21;;;;;;;24.52;10.60;;;;;;;;;;5033239;28;20040;-75
2021/11/13 18:13:47;;;;;;;24.83;11.20;;;;;;;;;;5031582;28;20040;-76
2021/11/13 18:16:13;;;;;;;24.13;10.48;;;;;;;;;;5031828;28;20495;-72
2021/11/13 18:18:39;;;;;;;26.23;10.73;;;;;;;;;;5031473;28;20120;-76
2021/11/13 18:21:05;;;;;;;28.17;11.00;;;;;;;;;;5048436;28;20026;-79
2021/11/13 18:23:31;;;;;;;25.20;11.02;;;;;;;;;;5028324;28;20108;-78
2021/11/13 18:25:56;;;;;;;27.90;11.60;;;;;;;;;;5013922;28;20041;-79
2021/11/13 18:28:22;;;;;;;22.48;11.48;;;;;;;;;;5027990;28;20061;-75
2021/11/13 18:30:50;;;;;;;24.83;11.43;;;;;;;;;;5012020;28;20554;-75
2021/11/13 18:33:20;;;;;;;26.48;11.18;;;;;;;;;;5012865;28;20036;-75
2021/11/13 18:35:46;;;;;;;26.00;11.55;;;;;;;;;;5012122;28;20113;-76
2021/11/13 18:38:13;;;;;;;27.92;11.43;;;;;;;;;;5028172;28;20030;-76
2021/11/13 18:40:40;;;;;;;24.75;10.90;;;;;;;;;;5014641;28;20038;-76
2021/11/13 18:43:06;;;;;;;28.25;10.82;;;;;;;;;;5016079;28;20064;-77
2021/11/13 18:45:32;;;;;;;25.05;10.80;;;;;;;;;;5016115;28;20392;-75
2021/11/13 18:47:58;;;;;;;27.55;11.40;;;;;;;;;;5017018;28;20033;-71
2021/11/13 18:50:23;;;;;;;23.25;10.27;;;;;;;;;;5034757;28;20484;-73
2021/11/13 18:52:49;;;;;;;22.88;10.38;;;;;;;;;;5035386;28;20029;-74
2021/11/13 18:55:15;;;;;;;22.23;11.13;;;;;;;;;;5051630;28;20385;-75
2021/11/13 18:57:41;;;;;;;25.88;11.07;;;;;;;;;;5034044;28;20044;-73
2021/11/13 19:00:08;;;;;;;21.58;9.70;;;;;;;;;;5036236;28;20057;-74
2021/11/13 19:02:33;;;;;;;22.52;9.65;;;;;;;;;;5036644;28;20097;-75
2021/11/13 19:04:59;;;;;;;21.50;9.98;;;;;;;;;;5018629;28;20128;-76
2021/11/13 19:07:25;;;;;;;25.08;10.45;;;;;;;;;;5036279;28;20423;-73
2021/11/13 19:09:50;;;;;;;21.42;9.52;;;;;;;;;;5035168;28;20025;-77
2021/11/13 19:12:18;;;;;;;20.85;9.27;;;;;;;;;;5035544;28;20040;-73
2021/11/13 19:14:44;;;;;;;19.10;9.02;;;;;;;;;;5035753;28;20133;-72
2021/11/13 19:17:10;;;;;;;18.60;9.25;;;;;;;;;;5036886;28;20112;-73
2021/11/13 19:19:37;;;;;;;20.20;9.57;;;;;;;;;;5035881;28;20033;-71
2021/11/13 19:22:04;;;;;;;19.80;9.88;;;;;;;;;;5035210;28;20033;-71
2021/11/13 19:24:30;;;;;;;24.02;9.27;;;;;;;;;;5035724;28;20037;-71
2021/11/13 19:26:56;;;;;;;19.33;9.20;;;;;;;;;;5031134;28;20388;-71
2021/11/13 19:29:21;;;;;;;19.45;8.70;;;;;;;;;;5031458;28;20037;-71
2021/11/13 19:31:47;;;;;;;19.90;9.20;;;;;;;;;;5031274;28;20431;-71
2021/11/13 19:34:12;;;;;;;17.17;9.40;;;;;;;;;;5031284;28;20038;-74
2021/11/13 19:36:38;;;;;;;23.20;9.05;;;;;;;;;;5031046;28;20022;-75
2021/11/13 19:39:03;;;;;;;19.00;8.57;;;;;;;;;;5031036;28;20041;-71
2021/11/13 19:41:29;;;;;;;17.75;9.32;;;;;;;;;;5015667;28;20072;-74
2021/11/13 19:43:55;;;;;;;21.65;9.35;;;;;;;;;;5015748;28;20045;-75
2021/11/13 19:46:28;;;;;;;20.20;8.50;;;;;;;;;;5015996;28;20088;-77
2021/11/13 19:48:54;;;;;;;17.73;8.15;;;;;;;;;;5030869;28;20048;-75
2021/11/13 19:51:20;;;;;;;21.08;9.10;;;;;;;;;;4998270;28;20025;-73
2021/11/13 19:53:46;;;;;;;20.05;9.20;;;;;;;;;;5030726;28;20070;-76
2021/11/13 19:56:11;;;;;;;17.33;8.25;;;;;;;;;;5015661;28;20072;-76
2021/11/13 19:58:37;;;;;;;17.42;8.13;;;;;;;;;;5047435;28;20033;-77
2021/11/13 20:01:06;;;;;;;18.55;9.50;;;;;;;;;;5047397;28;20026;-72
2021/11/13 20:03:48;;;;;;;18.77;8.50;;;;;;;;;;5047664;28;20030;-75
2021/11/13 20:06:14;;;;;;;17.27;8.43;;;;;;;;;;5015313;28;20088;-73
2021/11/13 20:08:39;;;;;;;16.27;8.45;;;;;;;;;;5015733;28;20048;-76
2021/11/13 20:11:06;;;;;;;16.13;8.63;;;;;;;;;;5052372;28;20528;-77
2021/11/13 20:13:31;;;;;;;17.15;8.27;;;;;;;;;;5033310;28;20032;-74
2021/11/13 20:15:58;;;;;;;16.38;7.80;;;;;;;;;;5031806;28;20021;-72
2021/11/13 20:18:26;;;;;;;15.60;8.25;;;;;;;;;;5033454;28;20030;-73
2021/11/13 20:20:52;;;;;;;14.77;7.35;;;;;;;;;;5034292;28;20029;-76
2021/11/13 20:23:20;;;;;;;15.15;8.02;;;;;;;;;;5034535;28;20018;-73
2021/11/13 20:25:46;;;;;;;17.13;7.88;;;;;;;;;;5034151;28;20476;-77
2021/11/13 20:28:12;;;;;;;16.98;7.68;;;;;;;;;;5034964;28;20389;-74
2021/11/13 20:30:37;;;;;;;15.18;7.65;;;;;;;;;;5034036;28;20033;-71
2021/11/13 20:33:03;;;;;;;14.93;8.38;;;;;;;;;;5033638;28;20118;-72
2021/11/13 20:35:29;;;;;;;14.95;7.60;;;;;;;;;;5034412;28;20032;-71
2021/11/13 20:37:57;;;;;;;13.50;6.88;;;;;;;;;;5032865;28;20029;-74
2021/11/13 20:40:27;;;;;;;13.95;6.85;;;;;;;;;;5033310;28;20030;-71
2021/11/13 20:42:55;;;;;;;18.15;7.75;;;;;;;;;;5033300;28;20043;-75
2021/11/13 20:45:20;;;;;;;17.60;7.53;;;;;;;;;;5033189;28;20511;-72
2021/11/13 20:47:46;;;;;;;16.10;6.95;;;;;;;;;;5034423;28;20029;-70
2021/11/13 20:50:13;;;;;;;14.82;7.07;;;;;;;;;;5032252;28;20120;-70
2021/11/13 20:52:39;;;;;;;15.30;7.45;;;;;;;;;;5033445;28;20018;-71
2021/11/13 20:55:05;;;;;;;12.60;6.90;;;;;;;;;;5033531;28;20068;-73
2021/11/13 20:57:31;;;;;;;16.58;7.72;;;;;;;;;;5033523;28;20496;-70
2021/11/13 20:59:59;;;;;;;14.40;7.18;;;;;;;;;;5033304;28;20109;-70
2021/11/13 21:02:25;;;;;;;14.48;7.03;;;;;;;;;;5033260;28;20104;-70
2021/11/13 21:04:51;;;;;;;13.93;7.05;;;;;;;;;;5031204;28;20102;-71
2021/11/13 21:07:17;;;;;;;12.13;6.85;;;;;;;;;;5032217;28;20013;-71
2021/11/13 21:09:42;;;;;;;15.15;6.90;;;;;;;;;;5023072;28;20599;-71
2021/11/13 21:12:08;;;;;;;14.52;6.97;;;;;;;;;;5030039;28;20026;-70
2021/11/13 21:14:34;;;;;;;15.07;7.57;;;;;;;;;;5031949;28;20060;-71
2021/11/13 21:16:59;;;;;;;13.30;6.85;;;;;;;;;;5030513;28;20014;-70
2021/11/13 21:19:27;;;;;;;13.55;6.88;;;;;;;;;;5012390;28;20034;-69
2021/11/13 21:21:54;;;;;;;14.77;7.22;;;;;;;;;;5028006;28;20083;-72
2021/11/13 21:24:21;;;;;;;18.48;7.15;;;;;;;;;;5048570;28;20436;-71
2021/11/13 21:26:47;;;;;;;14.38;7.88;;;;;;;;;;5033478;28;20464;-69
2021/11/13 21:29:13;;;;;;;14.85;7.30;;;;;;;;;;5033527;28;20061;-69
2021/11/13 21:31:38;;;;;;;14.63;6.47;;;;;;;;;;5031312;28;20075;-70
2021/11/13 21:34:04;;;;;;;14.32;7.45;;;;;;;;;;5047321;28;20626;-70
2021/11/13 21:36:30;;;;;;;13.80;7.05;;;;;;;;;;5029351;28;20036;-69
2021/11/13 21:38:56;;;;;;;15.82;7.50;;;;;;;;;;5032161;28;20071;-72
2021/11/13 21:41:22;;;;;;;12.35;6.72;;;;;;;;;;5031098;28;20057;-69
2021/11/13 21:43:49;;;;;;;15.90;7.07;;;;;;;;;;5031988;28;20037;-70
2021/11/13 21:46:15;;;;;;;12.40;6.85;;;;;;;;;;5030992;28;20040;-69
2021/11/13 21:48:40;;;;;;;16.58;7.18;;;;;;;;;;5032118;28;20025;-70
2021/11/13 21:51:06;;;;;;;13.15;6.32;;;;;;;;;;5032196;28;20072;-69
2021/11/13 21:53:32;;;;;;;13.15;6.97;;;;;;;;;;5030787;28;20061;-69
2021/11/13 21:55:58;;;;;;;12.20;6.10;;;;;;;;;;5031318;28;20030;-70
2021/11/13 21:58:24;;;;;;;12.82;6.55;;;;;;;;;;5031984;28;20029;-70
2021/11/13 22:00:50;;;;;;;14.80;7.40;;;;;;;;;;5030781;28;20052;-69
2021/11/13 22:03:16;;;;;;;15.32;6.07;;;;;;;;;;5030781;28;20083;-70
2021/11/13 22:05:42;;;;;;;12.73;6.43;;;;;;;;;;5030621;28;20400;-71
2021/11/13 22:08:08;;;;;;;14.93;6.90;;;;;;;;;;5014409;28;20037;-69
2021/11/13 22:10:38;;;;;;;11.60;6.15;;;;;;;;;;5030822;28;20041;-70
2021/11/13 22:13:04;;;;;;;11.77;6.63;;;;;;;;;;5032478;28;20033;-70
2021/11/13 22:15:30;;;;;;;11.00;5.78;;;;;;;;;;5033027;28;20056;-72
2021/11/13 22:17:55;;;;;;;13.05;6.55;;;;;;;;;;5037107;28;20072;-70
2021/11/13 22:20:22;;;;;;;13.80;6.45;;;;;;;;;;5036054;28;20091;-71
2021/11/13 22:22:48;;;;;;;13.48;6.82;;;;;;;;;;5036904;28;20041;-73
2021/11/13 22:25:15;;;;;;;12.23;5.82;;;;;;;;;;5052367;28;20037;-71
2021/11/13 22:27:42;;;;;;;13.45;6.18;;;;;;;;;;5052423;28;20155;-71
2021/11/13 22:30:12;;;;;;;12.98;6.45;;;;;;;;;;5036743;28;20040;-70
2021/11/13 22:32:38;;;;;;;13.80;6.63;;;;;;;;;;5036720;28;20476;-71
2021/11/13 22:35:04;;;;;;;11.20;5.72;;;;;;;;;;5036745;28;20117;-70
2021/11/13 22:37:30;;;;;;;14.40;6.30;;;;;;;;;;5036707;28;20026;-70
2021/11/13 22:39:55;;;;;;;9.82;5.90;;;;;;;;;;5035521;28;20361;-71
2021/11/13 22:42:21;;;;;;;12.05;6.60;;;;;;;;;;5037142;28;20105;-71
2021/11/13 22:44:47;;;;;;;13.05;6.10;;;;;;;;;;5051755;28;20039;-70
2021/11/13 22:47:12;;;;;;;11.45;6.53;;;;;;;;;;5051963;28;20033;-70
2021/11/13 22:49:38;;;;;;;9.68;5.35;;;;;;;;;;5036784;28;20083;-70
2021/11/13 22:52:04;;;;;;;13.15;6.72;;;;;;;;;;5051864;28;20057;-72
2021/11/13 22:54:30;;;;;;;10.68;6.38;;;;;;;;;;5036230;28;20053;-72
2021/11/13 22:56:55;;;;;;;10.02;5.88;;;;;;;;;;5035412;28;20029;-71
2021/11/13 22:59:21;;;;;;;9.77;5.65;;;;;;;;;;5036023;28;20068;-70
2021/11/13 23:01:51;;;;;;;11.13;6.90;;;;;;;;;;5051755;28;20021;-70
2021/11/13 23:04:20;;;;;;;10.98;5.95;;;;;;;;;;5036063;28;20480;-70
2021/11/13 23:06:46;;;;;;;10.30;5.60;;;;;;;;;;5034850;28;20025;-70
2021/11/13 23:09:14;;;;;;;11.43;6.35;;;;;;;;;;5036045;28;20109;-70
2021/11/13 23:11:41;;;;;;;10.32;5.68;;;;;;;;;;5051494;28;20361;-70
2021/11/13 23:14:07;;;;;;;11.95;6.82;;;;;;;;;;5036083;28;20026;-70
2021/11/13 23:16:33;;;;;;;11.90;5.63;;;;;;;;;;5036220;28;20029;-70
2021/11/13 23:19:00;;;;;;;9.75;5.57;;;;;;;;;;5036014;28;20353;-70
2021/11/13 23:21:28;;;;;;;8.48;5.15;;;;;;;;;;5034793;28;20034;-72
2021/11/13 23:23:53;;;;;;;10.05;5.65;;;;;;;;;;5035793;28;20391;-73
2021/11/13 23:26:19;;;;;;;8.73;5.30;;;;;;;;;;5035244;28;20030;-71
2021/11/13 23:28:46;;;;;;;11.25;5.80;;;;;;;;;;5051195;28;20033;-70
2021/11/13 23:31:12;;;;;;;9.23;5.32;;;;;;;;;;5036051;28;20488;-75
2021/11/13 23:33:37;;;;;;;9.95;5.78;;;;;;;;;;5035694;28;20060;-70
2021/11/13 23:36:04;;;;;;;10.18;5.22;;;;;;;;;;5035757;28;20036;-70
2021/11/13 23:38:30;;;;;;;10.63;5.70;;;;;;;;;;5035650;28;20021;-70
2021/11/13 23:40:56;;;;;;;8.93;5.13;;;;;;;;;;5034420;28;20040;-70
2021/11/13 23:43:22;;;;;;;9.40;5.07;;;;;;;;;;5035663;28;20029;-70
2021/11/13 23:45:47;;;;;;;9.40;5.68;;;;;;;;;;5050970;28;20494;-70
2021/11/13 23:48:14;;;;;;;8.93;5.28;;;;;;;;;;5034217;28;20029;-70
2021/11/13 23:50:42;;;;;;;13.85;6.30;;;;;;;;;;5034318;28;20101;-72
2021/11/13 23:53:08;;;;;;;9.77;5.28;;;;;;;;;;5050691;28;20025;-70
2021/11/13 23:55:34;;;;;;;9.77;5.32;;;;;;;;;;5035362;28;20499;-70
2021/11/13 23:57:59;;;;;;;9.13;5.20;;;;;;;;;;5034274;28;20037;-70
